createdAt,value
2017-05-15T00:00:51.617Z,1025.03
2017-05-15T00:01:53.555Z,1025.03
2017-05-15T00:02:55.374Z,1025.03
2017-05-15T00:03:57.215Z,1025.00
2017-05-15T00:04:59.029Z,1025.00
2017-05-15T00:06:00.876Z,1024.96
2017-05-15T00:07:02.915Z,1024.97
2017-05-15T00:08:04.735Z,1024.99
2017-05-15T00:09:06.578Z,1024.96
2017-05-15T00:10:08.398Z,1024.95
2017-05-15T00:11:10.232Z,1024.99
2017-05-15T00:12:12.098Z,1024.98
2017-05-15T00:13:13.942Z,1024.97
2017-05-15T00:14:15.783Z,1024.98
2017-05-15T00:15:17.623Z,1024.97
2017-05-15T00:16:19.438Z,1024.99
2017-05-15T00:17:21.685Z,1024.98
2017-05-15T00:18:23.527Z,1025.00
2017-05-15T00:19:25.371Z,1024.98
2017-05-15T00:20:27.208Z,1024.97
2017-05-15T00:21:29.029Z,1024.96
2017-05-15T00:22:30.971Z,1024.93
2017-05-15T00:23:32.806Z,1024.95
2017-05-15T00:24:34.666Z,1024.95
2017-05-15T00:25:36.505Z,1024.95
2017-05-15T00:26:38.344Z,1024.90
2017-05-15T00:27:40.385Z,1024.92
2017-05-15T00:28:42.228Z,1024.96
2017-05-15T00:29:44.043Z,1024.94
2017-05-15T00:30:45.887Z,1024.95
2017-05-15T00:31:47.727Z,1024.93
2017-05-15T00:32:49.572Z,1024.94
2017-05-15T00:33:51.416Z,1024.95
2017-05-15T00:34:53.261Z,1024.94
2017-05-15T00:35:55.103Z,1024.95
2017-05-15T00:36:56.941Z,1024.99
2017-05-15T00:37:59.096Z,1024.98
2017-05-15T00:39:00.925Z,1024.98
2017-05-15T00:40:02.774Z,1025.00
2017-05-15T00:41:04.607Z,1024.98
2017-05-15T00:42:06.427Z,1025.00
2017-05-15T00:43:08.373Z,1024.98
2017-05-15T00:44:10.262Z,1024.98
2017-05-15T00:45:12.101Z,1025.01
2017-05-15T00:46:13.895Z,1025.02
2017-05-15T00:47:15.740Z,1025.03
2017-05-15T00:48:17.961Z,1025.01
2017-05-15T00:49:19.800Z,1025.01
2017-05-15T00:50:21.634Z,1025.02
2017-05-15T00:51:23.450Z,1025.06
2017-05-15T00:52:25.294Z,1025.04
2017-05-15T00:53:27.137Z,1025.04
2017-05-15T00:54:28.979Z,1025.05
2017-05-15T00:55:30.794Z,1025.10
2017-05-15T00:56:32.638Z,1025.07
2017-05-15T00:57:34.483Z,1025.09
2017-05-15T00:58:36.522Z,1025.11
2017-05-15T00:59:38.365Z,1025.12
2017-05-15T01:00:40.206Z,1025.11
2017-05-15T01:01:42.051Z,1025.10
2017-05-15T01:02:43.895Z,1025.11
2017-05-15T01:03:45.837Z,1025.14
2017-05-15T01:04:58.803Z,1025.07
2017-05-15T01:06:00.647Z,1025.09
2017-05-15T01:07:02.490Z,1025.14
2017-05-15T01:08:04.332Z,1025.14
2017-05-15T01:09:06.472Z,1025.11
2017-05-15T01:10:08.293Z,1025.13
2017-05-15T01:11:10.133Z,1025.10
2017-05-15T01:12:11.952Z,1025.11
2017-05-15T01:13:13.797Z,1025.11
2017-05-15T01:14:15.686Z,1025.11
2017-05-15T01:15:17.483Z,1025.13
2017-05-15T01:16:19.327Z,1025.15
2017-05-15T01:17:21.168Z,1025.17
2017-05-15T01:18:22.988Z,1025.19
2017-05-15T01:19:25.203Z,1025.18
2017-05-15T01:20:27.045Z,1025.23
2017-05-15T01:21:28.889Z,1025.22
2017-05-15T01:22:30.709Z,1025.21
2017-05-15T01:23:32.556Z,1025.27
2017-05-15T01:24:34.466Z,1025.25
2017-05-15T01:25:36.277Z,1025.24
2017-05-15T01:26:38.099Z,1025.24
2017-05-15T01:27:39.913Z,1025.26
2017-05-15T01:28:41.761Z,1025.26
2017-05-15T01:29:43.805Z,1025.25
2017-05-15T01:30:45.644Z,1025.29
2017-05-15T01:31:47.461Z,1025.30
2017-05-15T01:32:49.303Z,1025.31
2017-05-15T01:33:51.144Z,1025.40
2017-05-15T01:34:53.009Z,1025.37
2017-05-15T01:35:54.842Z,1025.36
2017-05-15T01:36:56.689Z,1025.39
2017-05-15T01:37:58.529Z,1025.38
2017-05-15T01:39:00.366Z,1025.39
2017-05-15T01:40:02.586Z,1025.39
2017-05-15T01:41:04.425Z,1025.39
2017-05-15T01:42:06.251Z,1025.41
2017-05-15T01:43:08.089Z,1025.40
2017-05-15T01:44:09.940Z,1025.40
2017-05-15T01:45:11.807Z,1025.36
2017-05-15T01:46:13.641Z,1025.39
2017-05-15T01:47:15.488Z,1025.35
2017-05-15T01:48:17.331Z,1025.39
2017-05-15T01:49:19.148Z,1025.40
2017-05-15T01:50:21.237Z,1025.43
2017-05-15T01:51:23.080Z,1025.44
2017-05-15T01:52:24.935Z,1025.43
2017-05-15T01:53:26.771Z,1025.45
2017-05-15T01:54:28.613Z,1025.43
2017-05-15T01:55:30.481Z,1025.42
2017-05-15T01:56:32.322Z,1025.44
2017-05-15T01:57:34.165Z,1025.48
2017-05-15T01:58:35.983Z,1025.49
2017-05-15T01:59:37.796Z,1025.50
2017-05-15T02:00:40.114Z,1025.52
2017-05-15T02:01:41.938Z,1025.50
2017-05-15T02:02:43.774Z,1025.53
2017-05-15T02:03:45.620Z,1025.53
2017-05-15T02:04:47.441Z,1025.51
2017-05-15T02:05:49.304Z,1025.48
2017-05-15T02:06:51.150Z,1025.47
2017-05-15T02:07:52.995Z,1025.47
2017-05-15T02:08:54.831Z,1025.47
2017-05-15T02:09:56.650Z,1025.47
2017-05-15T02:10:58.796Z,1025.48
2017-05-15T02:12:00.640Z,1025.45
2017-05-15T02:13:02.479Z,1025.47
2017-05-15T02:14:04.315Z,1025.46
2017-05-15T02:15:06.131Z,1025.48
2017-05-15T02:16:07.977Z,1025.50
2017-05-15T02:17:09.817Z,1025.53
2017-05-15T02:18:11.633Z,1025.48
2017-05-15T02:19:13.461Z,1025.53
2017-05-15T02:20:15.322Z,1025.52
2017-05-15T02:21:17.562Z,1025.51
2017-05-15T02:22:19.375Z,1025.54
2017-05-15T02:23:21.196Z,1025.50
2017-05-15T02:24:23.025Z,1025.47
2017-05-15T02:25:24.851Z,1025.46
2017-05-15T02:26:26.696Z,1025.48
2017-05-15T02:27:28.537Z,1025.47
2017-05-15T02:28:30.378Z,1025.48
2017-05-15T02:29:32.220Z,1025.46
2017-05-15T02:30:34.062Z,1025.47
2017-05-15T02:31:36.158Z,1025.49
2017-05-15T02:32:37.997Z,1025.48
2017-05-15T02:33:39.837Z,1025.53
2017-05-15T02:34:41.682Z,1025.55
2017-05-15T02:35:43.519Z,1025.53
2017-05-15T02:36:45.390Z,1025.54
2017-05-15T02:37:47.228Z,1025.54
2017-05-15T02:38:49.051Z,1025.57
2017-05-15T02:39:50.888Z,1025.57
2017-05-15T02:40:52.709Z,1025.56
2017-05-15T02:41:54.952Z,1025.57
2017-05-15T02:42:56.792Z,1025.60
2017-05-15T02:43:58.611Z,1025.62
2017-05-15T02:45:00.426Z,1025.65
2017-05-15T02:46:02.242Z,1025.66
2017-05-15T02:47:04.114Z,1025.63
2017-05-15T02:48:05.959Z,1025.63
2017-05-15T02:49:07.802Z,1025.65
2017-05-15T02:50:09.649Z,1025.65
2017-05-15T02:51:11.496Z,1025.66
2017-05-15T02:52:13.784Z,1025.63
2017-05-15T02:53:15.639Z,1025.65
2017-05-15T02:54:17.521Z,1025.64
2017-05-15T02:55:19.327Z,1025.64
2017-05-15T02:56:21.162Z,1025.64
2017-05-15T02:57:23.034Z,1025.65
2017-05-15T02:58:24.964Z,1025.64
2017-05-15T02:59:26.824Z,1025.64
2017-05-15T03:00:28.667Z,1025.64
2017-05-15T03:01:30.507Z,1025.64
2017-05-15T03:02:32.574Z,1025.68
2017-05-15T03:03:34.467Z,1025.68
2017-05-15T03:04:36.289Z,1025.68
2017-05-15T03:05:38.133Z,1025.68
2017-05-15T03:06:39.979Z,1025.70
2017-05-15T03:07:41.819Z,1025.72
2017-05-15T03:08:43.637Z,1025.72
2017-05-15T03:09:45.483Z,1025.73
2017-05-15T03:10:47.334Z,1025.72
2017-05-15T03:11:49.174Z,1025.72
2017-05-15T03:12:51.319Z,1025.74
2017-05-15T03:13:53.141Z,1025.72
2017-05-15T03:14:54.990Z,1025.71
2017-05-15T03:15:56.831Z,1025.70
2017-05-15T03:16:58.677Z,1025.69
2017-05-15T03:18:00.524Z,1025.70
2017-05-15T03:19:02.342Z,1025.70
2017-05-15T03:20:04.159Z,1025.68
2017-05-15T03:21:06.202Z,1025.69
2017-05-15T03:22:08.024Z,1025.68
2017-05-15T03:23:10.145Z,1025.66
2017-05-15T03:24:11.963Z,1025.69
2017-05-15T03:25:13.787Z,1025.66
2017-05-15T03:26:15.624Z,1025.65
2017-05-15T03:27:17.472Z,1025.65
2017-05-15T03:28:19.321Z,1025.67
2017-05-15T03:29:21.168Z,1025.65
2017-05-15T03:30:22.987Z,1025.62
2017-05-15T03:31:24.804Z,1025.65
2017-05-15T03:32:26.653Z,1025.68
2017-05-15T03:33:28.601Z,1025.70
2017-05-15T03:34:30.456Z,1025.67
2017-05-15T03:35:32.299Z,1025.71
2017-05-15T03:36:34.150Z,1025.75
2017-05-15T03:37:35.997Z,1025.72
2017-05-15T03:38:37.843Z,1025.80
2017-05-15T03:39:39.694Z,1025.77
2017-05-15T03:40:41.538Z,1025.84
2017-05-15T03:41:43.381Z,1025.90
2017-05-15T03:42:45.202Z,1025.90
2017-05-15T03:43:47.424Z,1025.89
2017-05-15T03:44:49.272Z,1025.91
2017-05-15T03:45:51.121Z,1025.94
2017-05-15T03:46:52.942Z,1025.98
2017-05-15T03:47:54.795Z,1026.01
2017-05-15T03:48:56.743Z,1026.08
2017-05-15T03:49:58.589Z,1026.10
2017-05-15T03:51:00.433Z,1026.11
2017-05-15T03:52:02.287Z,1026.14
2017-05-15T03:53:04.132Z,1026.15
2017-05-15T03:54:06.362Z,1026.16
2017-05-15T03:55:08.207Z,1026.18
2017-05-15T03:56:10.032Z,1026.22
2017-05-15T03:57:11.886Z,1026.24
2017-05-15T03:58:13.731Z,1026.31
2017-05-15T03:59:15.580Z,1026.33
2017-05-15T04:00:17.433Z,1026.30
2017-05-15T04:01:19.256Z,1026.34
2017-05-15T04:02:21.079Z,1026.33
2017-05-15T04:03:22.898Z,1026.36
2017-05-15T04:04:24.979Z,1026.39
2017-05-15T04:05:26.827Z,1026.42
2017-05-15T04:06:28.678Z,1026.47
2017-05-15T04:07:30.508Z,1026.46
2017-05-15T04:08:32.354Z,1026.47
2017-05-15T04:09:37.581Z,1026.48
2017-05-15T04:10:39.437Z,1026.49
2017-05-15T04:11:41.262Z,1026.51
2017-05-15T04:12:43.083Z,1026.54
2017-05-15T04:13:44.943Z,1026.51
2017-05-15T04:14:46.990Z,1026.53
2017-05-15T04:15:48.846Z,1026.53
2017-05-15T04:16:50.693Z,1026.59
2017-05-15T04:17:52.525Z,1026.58
2017-05-15T04:18:54.373Z,1026.58
2017-05-15T04:19:56.234Z,1026.57
2017-05-15T04:20:58.086Z,1026.56
2017-05-15T04:21:59.946Z,1026.53
2017-05-15T04:23:01.793Z,1026.51
2017-05-15T04:24:03.653Z,1026.51
2017-05-15T04:25:05.906Z,1026.53
2017-05-15T04:26:07.733Z,1026.50
2017-05-15T04:27:09.558Z,1026.48
2017-05-15T04:28:11.408Z,1026.52
2017-05-15T04:29:13.264Z,1026.58
2017-05-15T04:30:15.117Z,1026.60
2017-05-15T04:31:16.969Z,1026.61
2017-05-15T04:32:18.796Z,1026.58
2017-05-15T04:33:20.648Z,1026.61
2017-05-15T04:34:22.509Z,1026.56
2017-05-15T04:35:24.569Z,1026.62
2017-05-15T04:36:26.416Z,1026.60
2017-05-15T04:37:28.249Z,1026.67
2017-05-15T04:38:30.105Z,1026.64
2017-05-15T04:39:31.960Z,1026.66
2017-05-15T04:40:33.807Z,1026.73
2017-05-15T04:41:35.640Z,1026.69
2017-05-15T04:42:37.491Z,1026.65
2017-05-15T04:43:39.343Z,1026.75
2017-05-15T04:44:41.199Z,1026.75
2017-05-15T04:45:43.055Z,1026.68
2017-05-15T04:46:44.913Z,1026.73
2017-05-15T04:47:46.769Z,1026.70
2017-05-15T04:48:48.623Z,1026.70
2017-05-15T04:49:50.477Z,1026.75
2017-05-15T04:50:52.431Z,1026.77
2017-05-15T04:51:54.288Z,1026.76
2017-05-15T04:52:56.141Z,1026.73
2017-05-15T04:53:57.988Z,1026.71
2017-05-15T04:54:59.843Z,1026.72
2017-05-15T04:56:01.715Z,1026.76
2017-05-15T04:57:03.545Z,1026.71
2017-05-15T04:58:05.401Z,1026.72
2017-05-15T04:59:07.246Z,1026.79
2017-05-15T05:00:09.072Z,1026.78
2017-05-15T05:01:10.931Z,1026.80
2017-05-15T05:02:12.782Z,1026.80
2017-05-15T05:03:14.635Z,1026.81
2017-05-15T05:04:16.483Z,1026.80
2017-05-15T05:05:18.312Z,1026.82
2017-05-15T05:06:20.457Z,1026.81
2017-05-15T05:07:22.288Z,1026.83
2017-05-15T05:08:24.138Z,1026.87
2017-05-15T05:09:25.966Z,1026.85
2017-05-15T05:10:27.812Z,1026.89
2017-05-15T05:11:29.967Z,1026.90
2017-05-15T05:12:31.818Z,1026.94
2017-05-15T05:13:33.671Z,1026.95
2017-05-15T05:14:35.518Z,1026.96
2017-05-15T05:15:37.376Z,1026.98
2017-05-15T05:16:39.222Z,1026.98
2017-05-15T05:17:41.078Z,1026.99
2017-05-15T05:18:42.934Z,1027.02
2017-05-15T05:19:44.785Z,1027.04
2017-05-15T05:20:46.637Z,1027.04
2017-05-15T05:21:48.541Z,1027.04
2017-05-15T05:22:50.394Z,1027.06
2017-05-15T05:23:52.223Z,1027.07
2017-05-15T05:24:54.080Z,1027.07
2017-05-15T05:25:55.925Z,1027.10
2017-05-15T05:26:57.782Z,1027.11
2017-05-15T05:27:59.608Z,1027.14
2017-05-15T05:29:01.461Z,1027.18
2017-05-15T05:30:03.315Z,1027.16
2017-05-15T05:31:05.125Z,1027.21
2017-05-15T05:32:07.454Z,1027.24
2017-05-15T05:33:09.303Z,1027.20
2017-05-15T05:34:11.134Z,1027.20
2017-05-15T05:35:12.986Z,1027.20
2017-05-15T05:36:14.827Z,1027.20
2017-05-15T05:37:16.685Z,1027.17
2017-05-15T05:38:18.535Z,1027.22
2017-05-15T05:39:20.385Z,1027.26
2017-05-15T05:40:22.237Z,1027.22
2017-05-15T05:41:24.092Z,1027.21
2017-05-15T05:42:25.943Z,1027.27
2017-05-15T05:43:27.795Z,1027.25
2017-05-15T05:44:29.653Z,1027.31
2017-05-15T05:45:31.501Z,1027.30
2017-05-15T05:46:33.351Z,1027.34
2017-05-15T05:47:35.201Z,1027.33
2017-05-15T05:48:37.057Z,1027.38
2017-05-15T05:49:38.883Z,1027.36
2017-05-15T05:50:40.736Z,1027.38
2017-05-15T05:51:42.583Z,1027.37
2017-05-15T05:52:44.437Z,1027.39
2017-05-15T05:53:46.281Z,1027.40
2017-05-15T05:54:48.134Z,1027.40
2017-05-15T05:55:49.969Z,1027.41
2017-05-15T05:56:51.817Z,1027.44
2017-05-15T05:57:53.671Z,1027.45
2017-05-15T05:58:55.519Z,1027.46
2017-05-15T05:59:57.371Z,1027.47
2017-05-15T06:00:59.226Z,1027.50
2017-05-15T06:02:01.080Z,1027.50
2017-05-15T06:03:03.230Z,1027.53
2017-05-15T06:04:05.064Z,1027.53
2017-05-15T06:05:06.914Z,1027.54
2017-05-15T06:06:08.738Z,1027.64
2017-05-15T06:07:10.563Z,1027.72
2017-05-15T06:08:12.522Z,1027.78
2017-05-15T06:09:14.382Z,1027.78
2017-05-15T06:10:16.234Z,1027.78
2017-05-15T06:11:18.081Z,1027.78
2017-05-15T06:12:19.912Z,1027.81
2017-05-15T06:13:22.067Z,1027.79
2017-05-15T06:14:23.917Z,1027.74
2017-05-15T06:15:25.771Z,1027.71
2017-05-15T06:16:27.597Z,1027.69
2017-05-15T06:17:29.450Z,1027.70
2017-05-15T06:18:31.356Z,1027.66
2017-05-15T06:19:33.247Z,1027.70
2017-05-15T06:20:35.053Z,1027.72
2017-05-15T06:21:36.910Z,1027.74
2017-05-15T06:22:38.762Z,1027.70
2017-05-15T06:23:40.621Z,1027.72
2017-05-15T06:24:42.476Z,1027.76
2017-05-15T06:25:44.335Z,1027.78
2017-05-15T06:26:46.156Z,1027.80
2017-05-15T06:27:47.992Z,1027.77
2017-05-15T06:28:49.840Z,1027.79
2017-05-15T06:29:51.699Z,1027.80
2017-05-15T06:30:53.551Z,1027.77
2017-05-15T06:31:55.381Z,1027.74
2017-05-15T06:32:57.231Z,1027.77
2017-05-15T06:33:59.137Z,1027.73
2017-05-15T06:35:00.965Z,1027.74
2017-05-15T06:36:02.819Z,1027.77
2017-05-15T06:37:04.677Z,1027.80
2017-05-15T06:38:06.531Z,1027.82
2017-05-15T06:39:08.379Z,1027.83
2017-05-15T06:40:10.202Z,1027.82
2017-05-15T06:41:12.029Z,1027.82
2017-05-15T06:42:13.858Z,1027.77
2017-05-15T06:43:15.688Z,1027.80
2017-05-15T06:44:17.842Z,1027.71
2017-05-15T06:45:19.699Z,1027.71
2017-05-15T06:46:21.525Z,1027.74
2017-05-15T06:47:23.380Z,1027.72
2017-05-15T06:48:25.211Z,1027.80
2017-05-15T06:49:27.266Z,1027.80
2017-05-15T06:50:29.126Z,1027.81
2017-05-15T06:51:30.950Z,1027.82
2017-05-15T06:52:32.776Z,1027.80
2017-05-15T06:53:34.632Z,1027.77
2017-05-15T06:54:36.590Z,1027.73
2017-05-15T06:55:38.420Z,1027.69
2017-05-15T06:56:40.274Z,1027.68
2017-05-15T06:57:42.101Z,1027.68
2017-05-15T06:58:43.927Z,1027.67
2017-05-15T06:59:46.057Z,1027.67
2017-05-15T07:00:47.952Z,1027.70
2017-05-15T07:01:49.759Z,1027.74
2017-05-15T07:02:51.589Z,1027.69
2017-05-15T07:03:53.441Z,1027.74
2017-05-15T07:04:55.300Z,1027.70
2017-05-15T07:05:57.152Z,1027.75
2017-05-15T07:07:10.080Z,1027.74
2017-05-15T07:08:11.932Z,1027.84
2017-05-15T07:09:13.789Z,1027.84
2017-05-15T07:10:16.046Z,1027.87
2017-05-15T07:11:17.903Z,1027.94
2017-05-15T07:12:19.754Z,1027.92
2017-05-15T07:13:21.582Z,1027.96
2017-05-15T07:14:23.413Z,1028.05
2017-05-15T07:15:25.463Z,1028.10
2017-05-15T07:16:27.299Z,1028.10
2017-05-15T07:17:29.152Z,1028.09
2017-05-15T07:18:31.005Z,1028.09
2017-05-15T07:19:32.833Z,1028.09
2017-05-15T07:20:34.884Z,1028.07
2017-05-15T07:21:36.719Z,1028.03
2017-05-15T07:22:38.568Z,1028.05
2017-05-15T07:23:40.402Z,1028.05
2017-05-15T07:24:42.231Z,1028.07
2017-05-15T07:25:44.282Z,1028.05
2017-05-15T07:26:46.140Z,1028.09
2017-05-15T07:27:47.986Z,1028.10
2017-05-15T07:28:49.811Z,1028.08
2017-05-15T07:29:51.646Z,1028.14
2017-05-15T07:30:53.501Z,1028.14
2017-05-15T07:31:55.353Z,1028.17
2017-05-15T07:32:57.206Z,1028.17
2017-05-15T07:33:59.032Z,1028.21
2017-05-15T07:35:00.899Z,1028.21
2017-05-15T07:36:02.950Z,1028.22
2017-05-15T07:37:04.802Z,1028.22
2017-05-15T07:38:06.653Z,1028.29
2017-05-15T07:39:08.486Z,1028.31
2017-05-15T07:40:10.339Z,1028.33
2017-05-15T07:41:12.286Z,1028.30
2017-05-15T07:42:14.122Z,1028.30
2017-05-15T07:43:15.971Z,1028.31
2017-05-15T07:44:17.802Z,1028.24
2017-05-15T07:45:19.655Z,1028.21
2017-05-15T07:46:21.715Z,1028.20
2017-05-15T07:47:23.565Z,1028.18
2017-05-15T07:48:25.397Z,1028.17
2017-05-15T07:49:27.254Z,1028.22
2017-05-15T07:50:29.111Z,1028.24
2017-05-15T07:51:30.969Z,1028.24
2017-05-15T07:52:32.824Z,1028.25
2017-05-15T07:53:34.682Z,1028.29
2017-05-15T07:54:36.503Z,1028.30
2017-05-15T07:55:38.334Z,1028.35
2017-05-15T07:56:40.391Z,1028.35
2017-05-15T07:57:42.250Z,1028.35
2017-05-15T07:58:44.081Z,1028.31
2017-05-15T07:59:45.939Z,1028.29
2017-05-15T08:00:47.793Z,1028.28
2017-05-15T08:01:49.744Z,1028.31
2017-05-15T08:02:51.577Z,1028.29
2017-05-15T08:03:53.409Z,1028.33
2017-05-15T08:04:55.256Z,1028.38
2017-05-15T08:05:57.116Z,1028.39
2017-05-15T08:06:58.977Z,1028.40
2017-05-15T08:08:00.805Z,1028.40
2017-05-15T08:09:02.665Z,1028.42
2017-05-15T08:10:04.515Z,1028.41
2017-05-15T08:11:06.369Z,1028.40
2017-05-15T08:12:08.245Z,1028.35
2017-05-15T08:13:10.108Z,1028.37
2017-05-15T08:14:11.944Z,1028.38
2017-05-15T08:15:13.790Z,1028.36
2017-05-15T08:16:15.637Z,1028.40
2017-05-15T08:17:17.897Z,1028.39
2017-05-15T08:18:19.729Z,1028.43
2017-05-15T08:19:21.558Z,1028.41
2017-05-15T08:20:23.413Z,1028.40
2017-05-15T08:21:25.274Z,1028.40
2017-05-15T08:22:27.382Z,1028.41
2017-05-15T08:23:29.233Z,1028.44
2017-05-15T08:24:31.062Z,1028.41
2017-05-15T08:25:32.919Z,1028.43
2017-05-15T08:26:34.773Z,1028.42
2017-05-15T08:27:36.630Z,1028.46
2017-05-15T08:28:38.487Z,1028.51
2017-05-15T08:29:40.341Z,1028.51
2017-05-15T08:30:42.175Z,1028.55
2017-05-15T08:31:44.004Z,1028.56
2017-05-15T08:32:45.861Z,1028.58
2017-05-15T08:33:47.709Z,1028.52
2017-05-15T08:34:49.546Z,1028.59
2017-05-15T08:35:51.404Z,1028.65
2017-05-15T08:36:53.255Z,1028.76
2017-05-15T08:37:55.131Z,1028.82
2017-05-15T08:38:56.986Z,1028.87
2017-05-15T08:39:58.850Z,1028.90
2017-05-15T08:41:00.697Z,1028.92
2017-05-15T08:42:02.522Z,1028.97
2017-05-15T08:43:04.482Z,1028.99
2017-05-15T08:44:06.336Z,1028.95
2017-05-15T08:45:08.190Z,1028.91
2017-05-15T08:46:10.026Z,1028.84
2017-05-15T08:47:11.892Z,1028.77
2017-05-15T08:48:13.934Z,1028.71
2017-05-15T08:49:15.785Z,1028.63
2017-05-15T08:50:17.644Z,1028.61
2017-05-15T08:51:19.505Z,1028.62
2017-05-15T08:52:21.363Z,1028.67
2017-05-15T08:53:23.401Z,1028.66
2017-05-15T08:54:25.257Z,1028.68
2017-05-15T08:55:27.084Z,1028.70
2017-05-15T08:56:28.915Z,1028.70
2017-05-15T08:57:30.746Z,1028.80
2017-05-15T08:58:32.798Z,1028.84
2017-05-15T08:59:34.632Z,1028.85
2017-05-15T09:00:36.465Z,1028.89
2017-05-15T09:01:38.289Z,1028.93
2017-05-15T09:02:40.149Z,1028.90
2017-05-15T09:03:42.178Z,1028.86
2017-05-15T09:04:44.012Z,1028.79
2017-05-15T09:05:45.868Z,1028.76
2017-05-15T09:06:47.700Z,1028.71
2017-05-15T09:07:49.557Z,1028.69
2017-05-15T09:08:51.442Z,1028.63
2017-05-15T09:09:53.266Z,1028.64
2017-05-15T09:10:55.125Z,1028.60
2017-05-15T09:11:56.979Z,1028.55
2017-05-15T09:12:58.811Z,1028.59
2017-05-15T09:14:00.682Z,1028.58
2017-05-15T09:15:02.517Z,1028.66
2017-05-15T09:16:04.368Z,1028.71
2017-05-15T09:17:06.201Z,1028.77
2017-05-15T09:18:08.027Z,1028.89
2017-05-15T09:19:13.057Z,1028.92
2017-05-15T09:20:14.890Z,1028.90
2017-05-15T09:21:16.750Z,1028.90
2017-05-15T09:22:18.612Z,1028.97
2017-05-15T09:23:20.468Z,1028.95
2017-05-15T09:24:22.425Z,1028.94
2017-05-15T09:25:24.278Z,1028.95
2017-05-15T09:26:26.144Z,1028.96
2017-05-15T09:27:28.000Z,1028.89
2017-05-15T09:28:29.857Z,1028.80
2017-05-15T09:29:31.715Z,1028.75
2017-05-15T09:30:33.570Z,1028.63
2017-05-15T09:31:35.430Z,1028.57
2017-05-15T09:32:37.294Z,1028.56
2017-05-15T09:33:39.144Z,1028.65
2017-05-15T09:34:41.195Z,1028.65
2017-05-15T09:35:43.053Z,1028.60
2017-05-15T09:36:44.910Z,1028.57
2017-05-15T09:37:46.743Z,1028.50
2017-05-15T09:38:48.597Z,1028.52
2017-05-15T09:39:50.481Z,1028.47
2017-05-15T09:40:52.332Z,1028.48
2017-05-15T09:41:54.161Z,1028.51
2017-05-15T09:42:55.992Z,1028.53
2017-05-15T09:43:57.821Z,1028.47
2017-05-15T09:44:59.784Z,1028.55
2017-05-15T09:46:01.642Z,1028.54
2017-05-15T09:47:03.472Z,1028.56
2017-05-15T09:48:05.322Z,1028.61
2017-05-15T09:49:07.177Z,1028.62
2017-05-15T09:50:09.034Z,1028.58
2017-05-15T09:51:10.894Z,1028.59
2017-05-15T09:52:12.748Z,1028.57
2017-05-15T09:53:14.607Z,1028.61
2017-05-15T09:54:16.467Z,1028.69
2017-05-15T09:55:18.313Z,1028.77
2017-05-15T09:56:20.148Z,1028.71
2017-05-15T09:57:21.976Z,1028.78
2017-05-15T09:58:23.805Z,1028.65
2017-05-15T09:59:25.655Z,1028.58
2017-05-15T10:00:27.685Z,1028.70
2017-05-15T10:01:29.517Z,1028.62
2017-05-15T10:02:31.378Z,1028.56
2017-05-15T10:03:33.231Z,1028.57
2017-05-15T10:04:35.059Z,1028.54
2017-05-15T10:05:37.016Z,1028.48
2017-05-15T10:06:38.870Z,1028.45
2017-05-15T10:07:40.728Z,1028.44
2017-05-15T10:08:42.581Z,1028.51
2017-05-15T10:09:44.417Z,1028.48
2017-05-15T10:10:46.321Z,1028.46
2017-05-15T10:11:48.183Z,1028.45
2017-05-15T10:12:50.038Z,1028.46
2017-05-15T10:13:51.889Z,1028.41
2017-05-15T10:14:53.721Z,1028.41
2017-05-15T10:15:55.748Z,1028.42
2017-05-15T10:16:57.601Z,1028.38
2017-05-15T10:17:59.428Z,1028.55
2017-05-15T10:19:01.290Z,1028.48
2017-05-15T10:20:03.140Z,1028.48
2017-05-15T10:21:05.195Z,1028.40
2017-05-15T10:22:07.052Z,1028.43
2017-05-15T10:23:08.906Z,1028.48
2017-05-15T10:24:10.763Z,1028.47
2017-05-15T10:25:12.617Z,1028.52
2017-05-15T10:26:14.676Z,1028.56
2017-05-15T10:27:16.533Z,1028.59
2017-05-15T10:28:18.380Z,1028.68
2017-05-15T10:29:20.215Z,1028.70
2017-05-15T10:30:22.064Z,1028.74
2017-05-15T10:31:23.940Z,1028.72
2017-05-15T10:32:25.774Z,1028.68
2017-05-15T10:33:27.629Z,1028.69
2017-05-15T10:34:29.487Z,1028.72
2017-05-15T10:35:31.343Z,1028.72
2017-05-15T10:36:33.373Z,1028.73
2017-05-15T10:37:35.224Z,1028.70
2017-05-15T10:38:37.082Z,1028.68
2017-05-15T10:39:38.948Z,1028.75
2017-05-15T10:40:40.807Z,1028.77
2017-05-15T10:41:42.957Z,1028.79
2017-05-15T10:42:44.814Z,1028.82
2017-05-15T10:43:46.678Z,1028.79
2017-05-15T10:44:48.523Z,1028.79
2017-05-15T10:45:50.381Z,1028.78
2017-05-15T10:46:52.235Z,1028.77
2017-05-15T10:47:54.072Z,1028.74
2017-05-15T10:48:55.929Z,1028.70
2017-05-15T10:49:57.784Z,1028.80
2017-05-15T10:50:59.617Z,1028.77
2017-05-15T10:52:01.477Z,1028.85
2017-05-15T10:53:03.327Z,1028.82
2017-05-15T10:54:05.161Z,1028.79
2017-05-15T10:55:06.994Z,1028.74
2017-05-15T10:56:08.848Z,1028.80
2017-05-15T10:57:10.727Z,1028.81
2017-05-15T10:58:12.587Z,1028.81
2017-05-15T10:59:14.419Z,1029.11
2017-05-15T11:00:16.253Z,1028.98
2017-05-15T11:01:18.081Z,1028.99
2017-05-15T11:02:19.965Z,1028.99
2017-05-15T11:03:21.823Z,1029.13
2017-05-15T11:04:23.683Z,1029.11
2017-05-15T11:05:25.513Z,1028.99
2017-05-15T11:06:27.365Z,1028.97
2017-05-15T11:07:29.227Z,1028.96
2017-05-15T11:08:31.082Z,1028.84
2017-05-15T11:09:32.942Z,1028.81
2017-05-15T11:10:34.799Z,1028.79
2017-05-15T11:11:36.660Z,1028.84
2017-05-15T11:12:38.516Z,1028.89
2017-05-15T11:13:40.375Z,1028.88
2017-05-15T11:14:42.233Z,1029.00
2017-05-15T11:15:44.082Z,1028.84
2017-05-15T11:16:45.918Z,1029.00
2017-05-15T11:17:47.799Z,1028.96
2017-05-15T11:18:49.626Z,1028.95
2017-05-15T11:19:51.487Z,1028.98
2017-05-15T11:20:53.344Z,1029.03
2017-05-15T11:21:55.173Z,1029.03
2017-05-15T11:22:57.047Z,1029.14
2017-05-15T11:23:58.908Z,1029.19
2017-05-15T11:25:00.766Z,1029.20
2017-05-15T11:26:02.625Z,1029.21
2017-05-15T11:27:04.482Z,1029.24
2017-05-15T11:28:06.334Z,1029.28
2017-05-15T11:29:08.198Z,1029.33
2017-05-15T11:30:10.053Z,1029.17
2017-05-15T11:31:11.911Z,1029.11
2017-05-15T11:32:13.769Z,1029.07
2017-05-15T11:33:15.724Z,1029.02
2017-05-15T11:34:17.584Z,1029.02
2017-05-15T11:35:19.443Z,1028.94
2017-05-15T11:36:21.297Z,1028.91
2017-05-15T11:37:23.135Z,1028.96
2017-05-15T11:38:25.191Z,1028.89
2017-05-15T11:39:27.053Z,1028.92
2017-05-15T11:40:28.910Z,1029.01
2017-05-15T11:41:30.763Z,1028.92
2017-05-15T11:42:32.597Z,1028.96
2017-05-15T11:43:34.481Z,1028.95
2017-05-15T11:44:36.337Z,1028.88
2017-05-15T11:45:38.192Z,1028.96
2017-05-15T11:46:40.022Z,1028.98
2017-05-15T11:47:41.862Z,1029.02
2017-05-15T11:48:46.921Z,1029.01
2017-05-15T11:49:48.779Z,1029.15
2017-05-15T11:50:50.608Z,1029.24
2017-05-15T11:51:52.465Z,1029.27
2017-05-15T11:52:54.323Z,1029.28
2017-05-15T11:53:56.430Z,1029.33
2017-05-15T11:54:58.415Z,1029.34
2017-05-15T11:56:00.276Z,1029.34
2017-05-15T11:57:02.133Z,1029.41
2017-05-15T11:58:03.994Z,1029.38
2017-05-15T11:59:05.906Z,1029.39
2017-05-15T12:00:07.760Z,1029.25
2017-05-15T12:01:09.624Z,1029.06
2017-05-15T12:02:11.451Z,1028.91
2017-05-15T12:03:13.315Z,1028.76
2017-05-15T12:04:15.198Z,1028.84
2017-05-15T12:05:17.028Z,1028.80
2017-05-15T12:06:18.857Z,1028.84
2017-05-15T12:07:20.684Z,1028.82
2017-05-15T12:08:22.552Z,1028.73
2017-05-15T12:09:24.460Z,1028.69
2017-05-15T12:10:26.321Z,1028.67
2017-05-15T12:11:28.182Z,1028.65
2017-05-15T12:12:30.007Z,1028.69
2017-05-15T12:13:31.843Z,1028.71
2017-05-15T12:14:33.752Z,1028.72
2017-05-15T12:15:35.607Z,1028.85
2017-05-15T12:16:37.467Z,1028.91
2017-05-15T12:17:39.328Z,1029.05
2017-05-15T12:18:41.187Z,1028.92
2017-05-15T12:19:43.044Z,1028.96
2017-05-15T12:20:44.902Z,1029.03
2017-05-15T12:21:46.753Z,1029.08
2017-05-15T12:22:48.611Z,1029.10
2017-05-15T12:23:50.433Z,1029.10
2017-05-15T12:24:52.326Z,1029.13
2017-05-15T12:25:54.182Z,1029.26
2017-05-15T12:26:56.036Z,1029.22
2017-05-15T12:27:57.863Z,1029.16
2017-05-15T12:28:59.695Z,1029.21